Terminal Aerodrome Forecast
Issued by NWS

Home | Current Version | Previous Version | Graphics & Text | Print | Product List | Glossary On
Versions: 1 2 3 4 5 6 7 8 9 10 11 12 13 14 15 16
418
FTUS43 KBIS 212331
TAFMOT
TAF
KMOT 212331Z 2200/2224 01009KT P6SM FEW200
     FM220300 03005KT P6SM SCT150
     FM220600 31004KT P6SM BKN110
     FM221500 35012G21KT P6SM BKN100=

USA.gov is the U.S. government's official web portal to all federal, state and local government web resources and services.